sensor_id;sensor_type;location;lat;lon;timestamp;P1;durP1;ratioP1;P2;durP2;ratioP2
14241;SDS011;7205;50.864;12.766;2024-01-25T00:01:19;10.33;;;2.87;;
14241;SDS011;7205;50.864;12.766;2024-01-25T00:03:46;9.40;;;2.60;;
14241;SDS011;7205;50.864;12.766;2024-01-25T00:06:13;11.83;;;2.83;;
14241;SDS011;7205;50.864;12.766;2024-01-25T00:08:41;5.47;;;2.17;;
14241;SDS011;7205;50.864;12.766;2024-01-25T00:11:08;7.73;;;2.07;;
14241;SDS011;7205;50.864;12.766;2024-01-25T00:13:35;8.47;;;2.33;;
14241;SDS011;7205;50.864;12.766;2024-01-25T00:16:03;7.83;;;2.37;;
14241;SDS011;7205;50.864;12.766;2024-01-25T00:18:30;7.93;;;2.97;;
14241;SDS011;7205;50.864;12.766;2024-01-25T00:20:57;14.63;;;2.23;;
14241;SDS011;7205;50.864;12.766;2024-01-25T00:23:23;9.17;;;2.20;;
14241;SDS011;7205;50.864;12.766;2024-01-25T00:25:54;10.63;;;2.63;;
14241;SDS011;7205;50.864;12.766;2024-01-25T00:28:23;10.90;;;2.50;;
14241;SDS011;7205;50.864;12.766;2024-01-25T00:30:50;8.33;;;2.33;;
14241;SDS011;7205;50.864;12.766;2024-01-25T00:33:17;11.43;;;2.80;;
14241;SDS011;7205;50.864;12.766;2024-01-25T00:35:44;9.37;;;3.10;;
14241;SDS011;7205;50.864;12.766;2024-01-25T00:38:11;16.07;;;2.83;;
14241;SDS011;7205;50.864;12.766;2024-01-25T00:40:39;8.37;;;2.83;;
14241;SDS011;7205;50.864;12.766;2024-01-25T00:43:08;9.53;;;2.50;;
14241;SDS011;7205;50.864;12.766;2024-01-25T00:45:35;5.57;;;2.40;;
14241;SDS011;7205;50.864;12.766;2024-01-25T00:48:03;8.57;;;2.30;;
14241;SDS011;7205;50.864;12.766;2024-01-25T00:50:30;7.60;;;2.90;;
14241;SDS011;7205;50.864;12.766;2024-01-25T00:52:57;8.63;;;3.33;;
14241;SDS011;7205;50.864;12.766;2024-01-25T00:55:25;11.00;;;3.47;;
14241;SDS011;7205;50.864;12.766;2024-01-25T00:57:52;10.83;;;3.20;;
14241;SDS011;7205;50.864;12.766;2024-01-25T01:00:21;9.93;;;3.17;;
14241;SDS011;7205;50.864;12.766;2024-01-25T01:02:49;8.70;;;2.87;;
14241;SDS011;7205;50.864;12.766;2024-01-25T01:05:16;8.73;;;3.07;;
14241;SDS011;7205;50.864;12.766;2024-01-25T01:07:44;10.40;;;2.63;;
14241;SDS011;7205;50.864;12.766;2024-01-25T01:10:11;8.73;;;2.10;;
14241;SDS011;7205;50.864;12.766;2024-01-25T01:12:39;6.33;;;2.43;;
14241;SDS011;7205;50.864;12.766;2024-01-25T01:15:06;13.73;;;2.33;;
14241;SDS011;7205;50.864;12.766;2024-01-25T01:17:34;12.30;;;3.30;;
14241;SDS011;7205;50.864;12.766;2024-01-25T01:20:01;11.47;;;2.93;;
14241;SDS011;7205;50.864;12.766;2024-01-25T01:22:28;7.07;;;2.37;;
14241;SDS011;7205;50.864;12.766;2024-01-25T01:24:55;8.20;;;2.57;;
14241;SDS011;7205;50.864;12.766;2024-01-25T01:27:22;7.90;;;2.10;;
14241;SDS011;7205;50.864;12.766;2024-01-25T01:29:48;9.80;;;3.03;;
14241;SDS011;7205;50.864;12.766;2024-01-25T01:32:15;10.73;;;2.70;;
14241;SDS011;7205;50.864;12.766;2024-01-25T01:34:43;7.33;;;2.30;;
14241;SDS011;7205;50.864;12.766;2024-01-25T01:37:09;10.07;;;2.20;;
14241;SDS011;7205;50.864;12.766;2024-01-25T01:39:36;11.57;;;3.20;;
14241;SDS011;7205;50.864;12.766;2024-01-25T01:42:02;11.87;;;2.83;;
14241;SDS011;7205;50.864;12.766;2024-01-25T01:44:29;12.30;;;2.83;;
14241;SDS011;7205;50.864;12.766;2024-01-25T01:46:56;13.50;;;2.93;;
14241;SDS011;7205;50.864;12.766;2024-01-25T01:49:23;12.77;;;2.80;;
14241;SDS011;7205;50.864;12.766;2024-01-25T01:51:51;9.80;;;2.70;;
14241;SDS011;7205;50.864;12.766;2024-01-25T01:54:18;10.73;;;2.90;;
14241;SDS011;7205;50.864;12.766;2024-01-25T01:56:45;8.83;;;2.90;;
14241;SDS011;7205;50.864;12.766;2024-01-25T01:59:13;11.67;;;2.43;;
14241;SDS011;7205;50.864;12.766;2024-01-25T02:01:39;8.70;;;2.67;;
14241;SDS011;7205;50.864;12.766;2024-01-25T02:04:06;8.53;;;2.63;;
14241;SDS011;7205;50.864;12.766;2024-01-25T02:06:33;11.53;;;3.07;;
14241;SDS011;7205;50.864;12.766;2024-01-25T02:09:01;6.63;;;2.20;;
14241;SDS011;7205;50.864;12.766;2024-01-25T02:11:28;8.37;;;3.00;;
14241;SDS011;7205;50.864;12.766;2024-01-25T02:13:55;10.77;;;2.57;;
14241;SDS011;7205;50.864;12.766;2024-01-25T02:16:22;10.80;;;2.77;;
14241;SDS011;7205;50.864;12.766;2024-01-25T02:18:49;8.60;;;2.53;;
14241;SDS011;7205;50.864;12.766;2024-01-25T02:21:16;10.57;;;3.57;;
14241;SDS011;7205;50.864;12.766;2024-01-25T02:23:44;12.53;;;3.57;;
14241;SDS011;7205;50.864;12.766;2024-01-25T02:26:11;8.83;;;2.53;;
14241;SDS011;7205;50.864;12.766;2024-01-25T02:28:38;10.80;;;3.27;;
14241;SDS011;7205;50.864;12.766;2024-01-25T02:31:04;13.60;;;3.00;;
14241;SDS011;7205;50.864;12.766;2024-01-25T02:33:31;10.87;;;3.20;;
14241;SDS011;7205;50.864;12.766;2024-01-25T02:35:58;11.83;;;3.27;;
14241;SDS011;7205;50.864;12.766;2024-01-25T02:38:25;6.77;;;2.20;;
14241;SDS011;7205;50.864;12.766;2024-01-25T02:40:53;11.30;;;3.03;;
14241;SDS011;7205;50.864;12.766;2024-01-25T02:43:20;10.03;;;2.73;;
14241;SDS011;7205;50.864;12.766;2024-01-25T02:45:47;11.77;;;3.07;;
14241;SDS011;7205;50.864;12.766;2024-01-25T02:48:14;11.77;;;3.00;;
14241;SDS011;7205;50.864;12.766;2024-01-25T02:50:41;12.17;;;2.80;;
14241;SDS011;7205;50.864;12.766;2024-01-25T02:53:08;10.93;;;3.00;;
14241;SDS011;7205;50.864;12.766;2024-01-25T02:55:34;9.60;;;3.07;;
14241;SDS011;7205;50.864;12.766;2024-01-25T02:58:03;12.60;;;3.23;;
14241;SDS011;7205;50.864;12.766;2024-01-25T03:00:30;16.33;;;3.97;;
14241;SDS011;7205;50.864;12.766;2024-01-25T03:02:56;10.83;;;3.57;;
14241;SDS011;7205;50.864;12.766;2024-01-25T03:05:23;10.80;;;3.20;;
14241;SDS011;7205;50.864;12.766;2024-01-25T03:07:50;11.33;;;2.90;;
14241;SDS011;7205;50.864;12.766;2024-01-25T03:10:17;11.33;;;3.10;;
14241;SDS011;7205;50.864;12.766;2024-01-25T03:12:44;12.47;;;2.97;;
14241;SDS011;7205;50.864;12.766;2024-01-25T03:15:12;11.30;;;3.50;;
14241;SDS011;7205;50.864;12.766;2024-01-25T03:17:40;10.10;;;2.80;;
14241;SDS011;7205;50.864;12.766;2024-01-25T03:20:07;8.53;;;2.97;;
14241;SDS011;7205;50.864;12.766;2024-01-25T03:22:34;16.70;;;3.43;;
14241;SDS011;7205;50.864;12.766;2024-01-25T03:25:01;11.83;;;3.17;;
14241;SDS011;7205;50.864;12.766;2024-01-25T03:27:28;15.47;;;3.30;;
14241;SDS011;7205;50.864;12.766;2024-01-25T03:29:55;20.77;;;3.23;;
14241;SDS011;7205;50.864;12.766;2024-01-25T03:32:23;16.40;;;3.13;;
14241;SDS011;7205;50.864;12.766;2024-01-25T03:34:49;14.63;;;3.50;;
14241;SDS011;7205;50.864;12.766;2024-01-25T03:37:16;12.90;;;3.43;;
14241;SDS011;7205;50.864;12.766;2024-01-25T03:39:43;11.83;;;3.00;;
14241;SDS011;7205;50.864;12.766;2024-01-25T03:42:10;15.70;;;3.73;;
14241;SDS011;7205;50.864;12.766;2024-01-25T03:44:36;12.33;;;2.97;;
14241;SDS011;7205;50.864;12.766;2024-01-25T03:47:03;9.50;;;3.20;;
14241;SDS011;7205;50.864;12.766;2024-01-25T03:49:32;11.90;;;2.90;;
14241;SDS011;7205;50.864;12.766;2024-01-25T03:51:59;13.33;;;2.93;;
14241;SDS011;7205;50.864;12.766;2024-01-25T03:54:25;16.17;;;3.57;;
14241;SDS011;7205;50.864;12.766;2024-01-25T03:56:52;9.97;;;3.33;;
14241;SDS011;7205;50.864;12.766;2024-01-25T03:59:19;11.63;;;3.53;;
14241;SDS011;7205;50.864;12.766;2024-01-25T04:01:46;15.87;;;3.87;;
14241;SDS011;7205;50.864;12.766;2024-01-25T04:04:13;15.57;;;3.67;;
14241;SDS011;7205;50.864;12.766;2024-01-25T04:06:42;17.40;;;4.17;;
14241;SDS011;7205;50.864;12.766;2024-01-25T04:09:11;10.33;;;3.20;;
14241;SDS011;7205;50.864;12.766;2024-01-25T04:11:38;10.00;;;2.80;;
14241;SDS011;7205;50.864;12.766;2024-01-25T04:14:05;12.77;;;3.30;;
14241;SDS011;7205;50.864;12.766;2024-01-25T04:16:32;14.43;;;3.63;;
14241;SDS011;7205;50.864;12.766;2024-01-25T04:18:59;10.83;;;3.70;;
14241;SDS011;7205;50.864;12.766;2024-01-25T04:21:26;11.53;;;3.73;;
14241;SDS011;7205;50.864;12.766;2024-01-25T04:24:00;11.63;;;3.27;;
14241;SDS011;7205;50.864;12.766;2024-01-25T04:26:30;13.73;;;3.47;;
14241;SDS011;7205;50.864;12.766;2024-01-25T04:28:57;12.23;;;3.17;;
14241;SDS011;7205;50.864;12.766;2024-01-25T04:31:24;11.87;;;3.17;;
14241;SDS011;7205;50.864;12.766;2024-01-25T04:33:51;15.67;;;3.60;;
14241;SDS011;7205;50.864;12.766;2024-01-25T04:36:18;14.10;;;3.80;;
14241;SDS011;7205;50.864;12.766;2024-01-25T04:38:44;14.60;;;4.03;;
14241;SDS011;7205;50.864;12.766;2024-01-25T04:41:13;19.07;;;3.87;;
14241;SDS011;7205;50.864;12.766;2024-01-25T04:43:39;11.97;;;3.53;;
14241;SDS011;7205;50.864;12.766;2024-01-25T04:46:06;8.60;;;3.10;;
14241;SDS011;7205;50.864;12.766;2024-01-25T04:48:33;11.20;;;3.57;;
14241;SDS011;7205;50.864;12.766;2024-01-25T04:51:00;11.53;;;3.10;;
14241;SDS011;7205;50.864;12.766;2024-01-25T04:53:26;16.40;;;3.13;;
14241;SDS011;7205;50.864;12.766;2024-01-25T04:55:54;17.60;;;3.73;;
14241;SDS011;7205;50.864;12.766;2024-01-25T04:58:23;12.40;;;3.03;;
14241;SDS011;7205;50.864;12.766;2024-01-25T05:00:50;13.00;;;2.70;;
14241;SDS011;7205;50.864;12.766;2024-01-25T05:03:18;15.10;;;4.27;;
14241;SDS011;7205;50.864;12.766;2024-01-25T05:05:44;14.47;;;4.13;;
14241;SDS011;7205;50.864;12.766;2024-01-25T05:08:11;11.00;;;2.80;;
14241;SDS011;7205;50.864;12.766;2024-01-25T05:10:38;11.80;;;3.00;;
14241;SDS011;7205;50.864;12.766;2024-01-25T05:13:05;10.93;;;3.03;;
14241;SDS011;7205;50.864;12.766;2024-01-25T05:15:33;12.40;;;3.60;;
14241;SDS011;7205;50.864;12.766;2024-01-25T05:18:00;13.30;;;3.27;;
14241;SDS011;7205;50.864;12.766;2024-01-25T05:20:27;12.93;;;3.23;;
14241;SDS011;7205;50.864;12.766;2024-01-25T05:22:58;14.43;;;3.47;;
14241;SDS011;7205;50.864;12.766;2024-01-25T05:25:25;13.77;;;3.43;;
14241;SDS011;7205;50.864;12.766;2024-01-25T05:27:53;15.27;;;3.73;;
14241;SDS011;7205;50.864;12.766;2024-01-25T05:30:19;13.80;;;3.93;;
14241;SDS011;7205;50.864;12.766;2024-01-25T05:32:48;14.10;;;3.53;;
14241;SDS011;7205;50.864;12.766;2024-01-25T05:35:15;12.63;;;3.27;;
14241;SDS011;7205;50.864;12.766;2024-01-25T05:37:42;14.30;;;3.50;;
14241;SDS011;7205;50.864;12.766;2024-01-25T05:40:09;11.90;;;3.30;;
14241;SDS011;7205;50.864;12.766;2024-01-25T05:42:37;15.60;;;4.20;;
14241;SDS011;7205;50.864;12.766;2024-01-25T05:45:04;14.40;;;3.70;;
14241;SDS011;7205;50.864;12.766;2024-01-25T05:47:31;11.83;;;2.83;;
14241;SDS011;7205;50.864;12.766;2024-01-25T05:50:01;14.43;;;3.20;;
14241;SDS011;7205;50.864;12.766;2024-01-25T05:52:28;15.37;;;3.47;;
14241;SDS011;7205;50.864;12.766;2024-01-25T05:54:54;12.60;;;2.97;;
14241;SDS011;7205;50.864;12.766;2024-01-25T05:57:21;16.13;;;3.60;;
14241;SDS011;7205;50.864;12.766;2024-01-25T05:59:48;17.87;;;3.43;;
14241;SDS011;7205;50.864;12.766;2024-01-25T06:02:15;12.57;;;3.10;;
14241;SDS011;7205;50.864;12.766;2024-01-25T06:04:42;11.30;;;3.20;;
14241;SDS011;7205;50.864;12.766;2024-01-25T06:07:10;12.53;;;3.00;;
14241;SDS011;7205;50.864;12.766;2024-01-25T06:09:37;14.27;;;3.40;;
14241;SDS011;7205;50.864;12.766;2024-01-25T06:12:04;11.50;;;2.73;;
14241;SDS011;7205;50.864;12.766;2024-01-25T06:14:31;13.43;;;3.40;;
14241;SDS011;7205;50.864;12.766;2024-01-25T06:16:58;10.23;;;3.03;;
14241;SDS011;7205;50.864;12.766;2024-01-25T06:19:25;7.33;;;2.50;;
14241;SDS011;7205;50.864;12.766;2024-01-25T06:21:52;8.83;;;2.70;;
14241;SDS011;7205;50.864;12.766;2024-01-25T06:24:20;11.33;;;3.33;;
14241;SDS011;7205;50.864;12.766;2024-01-25T06:26:47;10.27;;;2.87;;
14241;SDS011;7205;50.864;12.766;2024-01-25T06:29:14;15.07;;;3.13;;
14241;SDS011;7205;50.864;12.766;2024-01-25T06:31:41;13.93;;;3.47;;
14241;SDS011;7205;50.864;12.766;2024-01-25T06:34:09;9.43;;;2.77;;
14241;SDS011;7205;50.864;12.766;2024-01-25T06:36:38;9.47;;;2.30;;
14241;SDS011;7205;50.864;12.766;2024-01-25T06:39:05;12.93;;;3.20;;
14241;SDS011;7205;50.864;12.766;2024-01-25T06:41:33;10.90;;;3.10;;
14241;SDS011;7205;50.864;12.766;2024-01-25T06:44:00;8.57;;;2.53;;
14241;SDS011;7205;50.864;12.766;2024-01-25T06:46:28;10.20;;;2.63;;
14241;SDS011;7205;50.864;12.766;2024-01-25T06:48:54;11.97;;;3.10;;
14241;SDS011;7205;50.864;12.766;2024-01-25T06:51:21;8.47;;;2.57;;
14241;SDS011;7205;50.864;12.766;2024-01-25T06:53:48;8.73;;;2.53;;
14241;SDS011;7205;50.864;12.766;2024-01-25T06:56:15;10.93;;;2.70;;
14241;SDS011;7205;50.864;12.766;2024-01-25T06:58:43;9.10;;;2.87;;
14241;SDS011;7205;50.864;12.766;2024-01-25T07:01:10;8.07;;;2.37;;
14241;SDS011;7205;50.864;12.766;2024-01-25T07:03:37;8.50;;;2.53;;
14241;SDS011;7205;50.864;12.766;2024-01-25T07:06:04;8.67;;;2.57;;
14241;SDS011;7205;50.864;12.766;2024-01-25T07:08:31;9.00;;;2.67;;
14241;SDS011;7205;50.864;12.766;2024-01-25T07:10:58;9.37;;;2.50;;
14241;SDS011;7205;50.864;12.766;2024-01-25T07:13:26;10.90;;;2.57;;
14241;SDS011;7205;50.864;12.766;2024-01-25T07:15:54;12.50;;;3.10;;
14241;SDS011;7205;50.864;12.766;2024-01-25T07:18:21;9.70;;;2.47;;
14241;SDS011;7205;50.864;12.766;2024-01-25T07:20:49;10.40;;;2.93;;
14241;SDS011;7205;50.864;12.766;2024-01-25T07:23:16;6.40;;;2.67;;
14241;SDS011;7205;50.864;12.766;2024-01-25T07:25:43;20.80;;;2.93;;
14241;SDS011;7205;50.864;12.766;2024-01-25T07:28:10;12.27;;;2.63;;
14241;SDS011;7205;50.864;12.766;2024-01-25T07:30:37;7.43;;;2.33;;
14241;SDS011;7205;50.864;12.766;2024-01-25T07:33:05;8.83;;;2.90;;
14241;SDS011;7205;50.864;12.766;2024-01-25T07:35:33;9.00;;;2.57;;
14241;SDS011;7205;50.864;12.766;2024-01-25T07:38:00;8.93;;;2.63;;
14241;SDS011;7205;50.864;12.766;2024-01-25T07:40:27;7.27;;;2.10;;
14241;SDS011;7205;50.864;12.766;2024-01-25T07:42:54;6.53;;;2.20;;
14241;SDS011;7205;50.864;12.766;2024-01-25T07:45:20;10.17;;;2.30;;
14241;SDS011;7205;50.864;12.766;2024-01-25T07:47:47;12.70;;;3.10;;
14241;SDS011;7205;50.864;12.766;2024-01-25T07:50:15;12.60;;;2.83;;
14241;SDS011;7205;50.864;12.766;2024-01-25T07:52:42;6.60;;;2.70;;
14241;SDS011;7205;50.864;12.766;2024-01-25T07:55:09;9.33;;;2.73;;
14241;SDS011;7205;50.864;12.766;2024-01-25T07:57:36;10.40;;;2.40;;
14241;SDS011;7205;50.864;12.766;2024-01-25T08:00:03;9.10;;;2.10;;
14241;SDS011;7205;50.864;12.766;2024-01-25T08:02:30;4.43;;;1.83;;
14241;SDS011;7205;50.864;12.766;2024-01-25T08:04:57;8.17;;;2.17;;
14241;SDS011;7205;50.864;12.766;2024-01-25T08:07:25;13.57;;;2.37;;
14241;SDS011;7205;50.864;12.766;2024-01-25T08:09:52;12.67;;;3.03;;
14241;SDS011;7205;50.864;12.766;2024-01-25T08:12:23;8.47;;;2.20;;
14241;SDS011;7205;50.864;12.766;2024-01-25T08:14:49;9.63;;;2.23;;
14241;SDS011;7205;50.864;12.766;2024-01-25T08:17:16;8.37;;;1.97;;
14241;SDS011;7205;50.864;12.766;2024-01-25T08:19:43;6.93;;;1.90;;
14241;SDS011;7205;50.864;12.766;2024-01-25T08:22:11;6.90;;;1.93;;
14241;SDS011;7205;50.864;12.766;2024-01-25T08:24:39;5.47;;;2.20;;
14241;SDS011;7205;50.864;12.766;2024-01-25T08:27:06;8.30;;;2.17;;
14241;SDS011;7205;50.864;12.766;2024-01-25T08:29:33;7.83;;;2.30;;
14241;SDS011;7205;50.864;12.766;2024-01-25T08:32:01;8.90;;;2.33;;
14241;SDS011;7205;50.864;12.766;2024-01-25T08:34:28;9.17;;;2.07;;
14241;SDS011;7205;50.864;12.766;2024-01-25T08:36:55;5.73;;;1.80;;
14241;SDS011;7205;50.864;12.766;2024-01-25T08:39:22;8.90;;;2.07;;
14241;SDS011;7205;50.864;12.766;2024-01-25T08:41:50;7.70;;;1.90;;
14241;SDS011;7205;50.864;12.766;2024-01-25T08:44:16;6.57;;;2.00;;
14241;SDS011;7205;50.864;12.766;2024-01-25T08:46:43;8.80;;;2.40;;
14241;SDS011;7205;50.864;12.766;2024-01-25T08:49:10;8.07;;;2.47;;
14241;SDS011;7205;50.864;12.766;2024-01-25T08:51:37;6.60;;;2.20;;
14241;SDS011;7205;50.864;12.766;2024-01-25T08:54:04;6.37;;;2.57;;
14241;SDS011;7205;50.864;12.766;2024-01-25T08:56:31;5.80;;;1.70;;
14241;SDS011;7205;50.864;12.766;2024-01-25T08:58:59;8.07;;;2.57;;
14241;SDS011;7205;50.864;12.766;2024-01-25T09:01:26;6.23;;;1.83;;
14241;SDS011;7205;50.864;12.766;2024-01-25T09:03:53;10.30;;;2.27;;
14241;SDS011;7205;50.864;12.766;2024-01-25T09:06:20;8.60;;;2.23;;
14241;SDS011;7205;50.864;12.766;2024-01-25T09:08:47;10.37;;;2.37;;
14241;SDS011;7205;50.864;12.766;2024-01-25T09:11:13;9.33;;;2.23;;
14241;SDS011;7205;50.864;12.766;2024-01-25T09:13:40;4.17;;;1.50;;
14241;SDS011;7205;50.864;12.766;2024-01-25T09:16:11;7.60;;;1.90;;
14241;SDS011;7205;50.864;12.766;2024-01-25T09:18:38;9.93;;;2.40;;
14241;SDS011;7205;50.864;12.766;2024-01-25T09:21:05;10.80;;;2.37;;
14241;SDS011;7205;50.864;12.766;2024-01-25T09:23:31;5.83;;;1.97;;
14241;SDS011;7205;50.864;12.766;2024-01-25T09:25:58;6.90;;;1.97;;
14241;SDS011;7205;50.864;12.766;2024-01-25T09:28:25;8.77;;;2.33;;
14241;SDS011;7205;50.864;12.766;2024-01-25T09:30:52;6.47;;;2.53;;
14241;SDS011;7205;50.864;12.766;2024-01-25T09:33:20;8.07;;;2.33;;
14241;SDS011;7205;50.864;12.766;2024-01-25T09:35:47;7.63;;;1.93;;
14241;SDS011;7205;50.864;12.766;2024-01-25T09:38:13;6.70;;;1.90;;
14241;SDS011;7205;50.864;12.766;2024-01-25T09:40:40;7.50;;;2.10;;
14241;SDS011;7205;50.864;12.766;2024-01-25T09:43:07;11.07;;;3.40;;
14241;SDS011;7205;50.864;12.766;2024-01-25T09:45:34;6.80;;;2.10;;
14241;SDS011;7205;50.864;12.766;2024-01-25T09:48:01;4.93;;;2.60;;
14241;SDS011;7205;50.864;12.766;2024-01-25T09:50:31;7.47;;;2.20;;
14241;SDS011;7205;50.864;12.766;2024-01-25T09:52:59;12.00;;;5.00;;
14241;SDS011;7205;50.864;12.766;2024-01-25T09:55:26;6.70;;;4.37;;
14241;SDS011;7205;50.864;12.766;2024-01-25T09:57:53;6.90;;;2.00;;
14241;SDS011;7205;50.864;12.766;2024-01-25T10:00:21;6.17;;;1.73;;
14241;SDS011;7205;50.864;12.766;2024-01-25T10:02:49;7.47;;;2.63;;
14241;SDS011;7205;50.864;12.766;2024-01-25T10:05:16;5.47;;;1.67;;
14241;SDS011;7205;50.864;12.766;2024-01-25T10:07:44;3.63;;;1.20;;
14241;SDS011;7205;50.864;12.766;2024-01-25T10:10:12;7.00;;;2.00;;
14241;SDS011;7205;50.864;12.766;2024-01-25T10:12:40;7.13;;;1.90;;
14241;SDS011;7205;50.864;12.766;2024-01-25T10:15:07;10.03;;;1.90;;
14241;SDS011;7205;50.864;12.766;2024-01-25T10:17:35;6.40;;;1.70;;
14241;SDS011;7205;50.864;12.766;2024-01-25T10:20:04;7.30;;;1.70;;
14241;SDS011;7205;50.864;12.766;2024-01-25T10:22:32;7.73;;;1.67;;
14241;SDS011;7205;50.864;12.766;2024-01-25T10:25:00;5.63;;;1.63;;
14241;SDS011;7205;50.864;12.766;2024-01-25T10:27:28;4.47;;;1.60;;
14241;SDS011;7205;50.864;12.766;2024-01-25T10:29:55;4.70;;;1.50;;
14241;SDS011;7205;50.864;12.766;2024-01-25T10:32:22;6.00;;;1.77;;
14241;SDS011;7205;50.864;12.766;2024-01-25T10:34:49;5.37;;;1.73;;
14241;SDS011;7205;50.864;12.766;2024-01-25T10:37:17;5.93;;;1.57;;
14241;SDS011;7205;50.864;12.766;2024-01-25T10:39:46;8.00;;;2.00;;
14241;SDS011;7205;50.864;12.766;2024-01-25T10:42:15;4.27;;;1.97;;
14241;SDS011;7205;50.864;12.766;2024-01-25T10:44:42;7.43;;;1.67;;
14241;SDS011;7205;50.864;12.766;2024-01-25T10:47:11;6.23;;;2.37;;
14241;SDS011;7205;50.864;12.766;2024-01-25T10:49:38;5.93;;;1.97;;
14241;SDS011;7205;50.864;12.766;2024-01-25T10:52:05;3.73;;;1.53;;
14241;SDS011;7205;50.864;12.766;2024-01-25T10:54:33;8.23;;;1.60;;
14241;SDS011;7205;50.864;12.766;2024-01-25T10:57:00;3.30;;;1.20;;
14241;SDS011;7205;50.864;12.766;2024-01-25T10:59:29;5.63;;;1.50;;
14241;SDS011;7205;50.864;12.766;2024-01-25T11:01:56;9.23;;;3.20;;
14241;SDS011;7205;50.864;12.766;2024-01-25T11:04:23;5.53;;;1.37;;
14241;SDS011;7205;50.864;12.766;2024-01-25T11:06:50;6.83;;;1.70;;
14241;SDS011;7205;50.864;12.766;2024-01-25T11:09:18;4.73;;;1.50;;
14241;SDS011;7205;50.864;12.766;2024-01-25T11:11:46;2.40;;;1.10;;
14241;SDS011;7205;50.864;12.766;2024-01-25T11:14:14;9.23;;;2.50;;
14241;SDS011;7205;50.864;12.766;2024-01-25T11:16:43;4.33;;;1.70;;
14241;SDS011;7205;50.864;12.766;2024-01-25T11:19:18;4.97;;;1.30;;
14241;SDS011;7205;50.864;12.766;2024-01-25T11:21:46;8.10;;;1.70;;
14241;SDS011;7205;50.864;12.766;2024-01-25T11:24:15;5.30;;;1.83;;
14241;SDS011;7205;50.864;12.766;2024-01-25T11:26:42;7.00;;;1.87;;
14241;SDS011;7205;50.864;12.766;2024-01-25T11:29:12;5.63;;;1.43;;
14241;SDS011;7205;50.864;12.766;2024-01-25T11:31:42;5.80;;;1.50;;
14241;SDS011;7205;50.864;12.766;2024-01-25T11:34:10;4.40;;;1.37;;
14241;SDS011;7205;50.864;12.766;2024-01-25T11:36:38;3.40;;;0.90;;
14241;SDS011;7205;50.864;12.766;2024-01-25T11:39:05;5.37;;;1.40;;
14241;SDS011;7205;50.864;12.766;2024-01-25T11:41:32;5.63;;;1.60;;
14241;SDS011;7205;50.864;12.766;2024-01-25T11:43:59;4.60;;;1.57;;
14241;SDS011;7205;50.864;12.766;2024-01-25T11:46:29;6.07;;;1.43;;
14241;SDS011;7205;50.864;12.766;2024-01-25T11:48:58;5.63;;;1.33;;
14241;SDS011;7205;50.864;12.766;2024-01-25T11:51:25;5.20;;;1.67;;
14241;SDS011;7205;50.864;12.766;2024-01-25T11:53:52;4.07;;;1.50;;
14241;SDS011;7205;50.864;12.766;2024-01-25T11:56:19;4.60;;;1.63;;
14241;SDS011;7205;50.864;12.766;2024-01-25T11:58:49;6.33;;;1.30;;
14241;SDS011;7205;50.864;12.766;2024-01-25T12:01:17;5.67;;;1.73;;
14241;SDS011;7205;50.864;12.766;2024-01-25T12:03:45;5.50;;;1.33;;
14241;SDS011;7205;50.864;12.766;2024-01-25T12:06:13;4.83;;;1.70;;
14241;SDS011;7205;50.864;12.766;2024-01-25T12:08:40;5.87;;;1.77;;
14241;SDS011;7205;50.864;12.766;2024-01-25T12:11:08;6.97;;;1.67;;
14241;SDS011;7205;50.864;12.766;2024-01-25T12:13:36;4.50;;;1.23;;
14241;SDS011;7205;50.864;12.766;2024-01-25T12:16:05;5.83;;;1.60;;
14241;SDS011;7205;50.864;12.766;2024-01-25T12:18:33;4.03;;;1.50;;
14241;SDS011;7205;50.864;12.766;2024-01-25T12:21:02;3.97;;;1.43;;
14241;SDS011;7205;50.864;12.766;2024-01-25T12:23:32;5.03;;;1.30;;
14241;SDS011;7205;50.864;12.766;2024-01-25T12:26:00;5.70;;;1.47;;
14241;SDS011;7205;50.864;12.766;2024-01-25T12:28:30;3.07;;;1.37;;
14241;SDS011;7205;50.864;12.766;2024-01-25T12:30:57;6.20;;;1.47;;
14241;SDS011;7205;50.864;12.766;2024-01-25T12:33:29;6.37;;;1.83;;
14241;SDS011;7205;50.864;12.766;2024-01-25T12:35:57;4.07;;;1.40;;
14241;SDS011;7205;50.864;12.766;2024-01-25T12:38:26;5.43;;;1.73;;
14241;SDS011;7205;50.864;12.766;2024-01-25T12:40:59;4.37;;;1.60;;
14241;SDS011;7205;50.864;12.766;2024-01-25T12:43:28;4.63;;;1.53;;
14241;SDS011;7205;50.864;12.766;2024-01-25T12:45:55;6.77;;;1.37;;
14241;SDS011;7205;50.864;12.766;2024-01-25T12:48:27;8.97;;;2.70;;
14241;SDS011;7205;50.864;12.766;2024-01-25T12:50:56;3.53;;;1.70;;
14241;SDS011;7205;50.864;12.766;2024-01-25T12:53:22;6.33;;;1.90;;
14241;SDS011;7205;50.864;12.766;2024-01-25T12:55:49;3.73;;;1.17;;
14241;SDS011;7205;50.864;12.766;2024-01-25T12:58:17;8.27;;;2.17;;
14241;SDS011;7205;50.864;12.766;2024-01-25T13:00:44;3.63;;;1.57;;
14241;SDS011;7205;50.864;12.766;2024-01-25T13:03:11;7.13;;;2.10;;
14241;SDS011;7205;50.864;12.766;2024-01-25T13:05:38;7.60;;;1.50;;
14241;SDS011;7205;50.864;12.766;2024-01-25T13:08:05;6.00;;;1.60;;
14241;SDS011;7205;50.864;12.766;2024-01-25T13:10:33;4.30;;;1.50;;
14241;SDS011;7205;50.864;12.766;2024-01-25T13:12:59;5.90;;;1.67;;
14241;SDS011;7205;50.864;12.766;2024-01-25T13:15:28;3.50;;;1.37;;
14241;SDS011;7205;50.864;12.766;2024-01-25T13:17:55;3.33;;;1.33;;
14241;SDS011;7205;50.864;12.766;2024-01-25T13:20:23;4.03;;;1.30;;
14241;SDS011;7205;50.864;12.766;2024-01-25T13:22:49;6.23;;;1.80;;
14241;SDS011;7205;50.864;12.766;2024-01-25T13:25:16;4.87;;;1.53;;
14241;SDS011;7205;50.864;12.766;2024-01-25T13:27:43;4.20;;;1.23;;
14241;SDS011;7205;50.864;12.766;2024-01-25T13:30:11;7.00;;;1.40;;
14241;SDS011;7205;50.864;12.766;2024-01-25T13:32:40;6.33;;;1.70;;
14241;SDS011;7205;50.864;12.766;2024-01-25T13:35:07;4.27;;;1.70;;
14241;SDS011;7205;50.864;12.766;2024-01-25T13:37:33;6.23;;;2.17;;
14241;SDS011;7205;50.864;12.766;2024-01-25T13:40:00;6.23;;;1.70;;
14241;SDS011;7205;50.864;12.766;2024-01-25T13:42:29;3.30;;;1.50;;
14241;SDS011;7205;50.864;12.766;2024-01-25T13:44:55;5.73;;;1.50;;
14241;SDS011;7205;50.864;12.766;2024-01-25T13:47:22;4.67;;;1.70;;
14241;SDS011;7205;50.864;12.766;2024-01-25T13:49:51;8.00;;;2.10;;
14241;SDS011;7205;50.864;12.766;2024-01-25T13:52:18;3.63;;;1.70;;
14241;SDS011;7205;50.864;12.766;2024-01-25T13:54:45;6.77;;;2.00;;
14241;SDS011;7205;50.864;12.766;2024-01-25T13:57:13;6.37;;;2.10;;
14241;SDS011;7205;50.864;12.766;2024-01-25T13:59:40;7.37;;;2.20;;
14241;SDS011;7205;50.864;12.766;2024-01-25T14:02:07;6.37;;;1.80;;
14241;SDS011;7205;50.864;12.766;2024-01-25T14:04:33;4.67;;;1.50;;
14241;SDS011;7205;50.864;12.766;2024-01-25T14:07:02;7.60;;;1.57;;
14241;SDS011;7205;50.864;12.766;2024-01-25T14:09:29;9.73;;;1.77;;
14241;SDS011;7205;50.864;12.766;2024-01-25T14:11:56;2.87;;;1.23;;
14241;SDS011;7205;50.864;12.766;2024-01-25T14:14:23;6.23;;;1.53;;
14241;SDS011;7205;50.864;12.766;2024-01-25T14:16:50;5.93;;;1.70;;
14241;SDS011;7205;50.864;12.766;2024-01-25T14:19:17;4.97;;;1.93;;
14241;SDS011;7205;50.864;12.766;2024-01-25T14:21:45;6.73;;;1.63;;
14241;SDS011;7205;50.864;12.766;2024-01-25T14:24:15;7.07;;;1.80;;
14241;SDS011;7205;50.864;12.766;2024-01-25T14:26:43;4.23;;;1.87;;
14241;SDS011;7205;50.864;12.766;2024-01-25T14:29:11;3.70;;;1.63;;
14241;SDS011;7205;50.864;12.766;2024-01-25T14:31:37;5.43;;;2.10;;
14241;SDS011;7205;50.864;12.766;2024-01-25T14:34:04;5.80;;;1.93;;
14241;SDS011;7205;50.864;12.766;2024-01-25T14:36:31;5.53;;;2.20;;
14241;SDS011;7205;50.864;12.766;2024-01-25T14:39:01;7.03;;;1.70;;
14241;SDS011;7205;50.864;12.766;2024-01-25T14:41:30;6.60;;;2.30;;
14241;SDS011;7205;50.864;12.766;2024-01-25T14:43:59;7.27;;;2.07;;